CNH660 UKKO-UKBP
Flight info
| Callsign | CNH660 |
|---|---|
| Flight time | 0h 26m |
| Altitude | 11000 |
| Route | BUDUK DCT LULAP |
| Aircraft | IL76/H-SDFGHIM1RTUWXY/LB1 |
Departure
| Time | 2026-04-25 10:31 |
|---|---|
| Airport | Ozerne Air Base (UKKO) |
Arrival
| Time | 2026-04-25 10:58 |
|---|---|
| Airport | Pryluki Air Base (UKBP) |
| Time | Latitude | Longitude | Altitude | Speed | Heading |
|---|---|---|---|---|---|
| 2026-04-25 10:18 | 50.16765 | 28.72649 | 778 ft | 0 kts | 156° |
| 2026-04-25 10:28 | 50.16764 | 28.72649 | 778 ft | 0 kts | 160° |
| 2026-04-25 10:28 | 50.16743 | 28.72643 | 778 ft | 5 kts | 213° |
| 2026-04-25 10:28 | 50.16737 | 28.72631 | 778 ft | 0 kts | 255° |
| 2026-04-25 10:28 | 50.16736 | 28.72630 | 778 ft | 1 kts | 259° |
| 2026-04-25 10:29 | 50.16735 | 28.72615 | 778 ft | 0 kts | 262° |
| 2026-04-25 10:29 | 50.16733 | 28.72590 | 778 ft | 11 kts | 264° |
| 2026-04-25 10:29 | 50.16763 | 28.72310 | 778 ft | 33 kts | 277° |
| 2026-04-25 10:29 | 50.16674 | 28.72079 | 778 ft | 23 kts | 207° |
| 2026-04-25 10:30 | 50.16555 | 28.72004 | 778 ft | 13 kts | 158° |
| 2026-04-25 10:30 | 50.16503 | 28.72076 | 778 ft | 7 kts | 132° |
| 2026-04-25 10:30 | 50.16444 | 28.72224 | 778 ft | 40 kts | 119° |
| 2026-04-25 10:30 | 50.16199 | 28.72932 | 778 ft | 107 kts | 117° |
| 2026-04-25 10:31 | 50.15766 | 28.74201 | 778 ft | 156 kts | 119° |
| 2026-04-25 10:31 | 50.15236 | 28.75773 | 1193 ft | 156 kts | 119° |
| 2026-04-25 10:31 | 50.14783 | 28.77258 | 1668 ft | 154 kts | 119° |
| 2026-04-25 10:31 | 50.14262 | 28.78820 | 2005 ft | 172 kts | 127° |
| 2026-04-25 10:32 | 50.13447 | 28.80268 | 2372 ft | 184 kts | 148° |
| 2026-04-25 10:32 | 50.12404 | 28.81479 | 2818 ft | 198 kts | 142° |
| 2026-04-25 10:32 | 50.11423 | 28.83039 | 3415 ft | 205 kts | 139° |
| 2026-04-25 10:32 | 50.10362 | 28.84677 | 3930 ft | 226 kts | 143° |
| 2026-04-25 10:33 | 50.09187 | 28.86405 | 4549 ft | 241 kts | 141° |
| 2026-04-25 10:33 | 50.08015 | 28.88385 | 5236 ft | 254 kts | 135° |
| 2026-04-25 10:33 | 50.06897 | 28.90655 | 5291 ft | 298 kts | 130° |
| 2026-04-25 10:33 | 50.05679 | 28.93564 | 5357 ft | 337 kts | 124° |
| 2026-04-25 10:34 | 50.04498 | 28.96844 | 5545 ft | 368 kts | 121° |
| 2026-04-25 10:34 | 50.03315 | 29.00564 | 5889 ft | 391 kts | 117° |
| 2026-04-25 10:34 | 50.02235 | 29.04495 | 6720 ft | 398 kts | 114° |
| 2026-04-25 10:34 | 50.01292 | 29.08535 | 7584 ft | 403 kts | 110° |
| 2026-04-25 10:35 | 50.00483 | 29.12695 | 8397 ft | 408 kts | 107° |
| 2026-04-25 10:35 | 49.99809 | 29.16981 | 9192 ft | 413 kts | 103° |
| 2026-04-25 10:35 | 49.99275 | 29.21396 | 9932 ft | 419 kts | 100° |
| 2026-04-25 10:35 | 49.98896 | 29.25822 | 10666 ft | 422 kts | 97° |
| 2026-04-25 10:36 | 49.98660 | 29.30428 | 11314 ft | 428 kts | 94° |
| 2026-04-25 10:36 | 49.98581 | 29.35033 | 11965 ft | 432 kts | 90° |
| 2026-04-25 10:36 | 49.98661 | 29.39735 | 12541 ft | 437 kts | 85° |
| 2026-04-25 10:36 | 49.99337 | 29.44268 | 13014 ft | 437 kts | 64° |
| 2026-04-25 10:37 | 50.00956 | 29.48179 | 13663 ft | 431 kts | 50° |
| 2026-04-25 10:37 | 50.01471 | 29.49247 | 13839 ft | 432 kts | 52° |
| 2026-04-25 10:37 | 50.02790 | 29.53450 | 14336 ft | 446 kts | 70° |
| 2026-04-25 10:38 | 50.04809 | 29.67740 | 14909 ft | 455 kts | 80° |
| 2026-04-25 10:38 | 50.05304 | 29.72590 | 14801 ft | 456 kts | 81° |
| 2026-04-25 10:38 | 50.05772 | 29.77456 | 14706 ft | 456 kts | 81° |
| 2026-04-25 10:39 | 50.06220 | 29.82338 | 14650 ft | 455 kts | 82° |
| 2026-04-25 10:39 | 50.06656 | 29.87222 | 14560 ft | 456 kts | 82° |
| 2026-04-25 10:39 | 50.07085 | 29.92124 | 14549 ft | 454 kts | 82° |
| 2026-04-25 10:39 | 50.07502 | 29.96921 | 14469 ft | 454 kts | 82° |
| 2026-04-25 10:40 | 50.07921 | 30.01815 | 14451 ft | 452 kts | 82° |
| 2026-04-25 10:40 | 50.08334 | 30.06647 | 14458 ft | 450 kts | 82° |
| 2026-04-25 10:40 | 50.08743 | 30.11466 | 14460 ft | 449 kts | 82° |
| 2026-04-25 10:40 | 50.09143 | 30.16263 | 14459 ft | 448 kts | 82° |
| 2026-04-25 10:41 | 50.09542 | 30.21001 | 14458 ft | 447 kts | 82° |
| 2026-04-25 10:41 | 50.09944 | 30.25830 | 14466 ft | 446 kts | 82° |
| 2026-04-25 10:41 | 50.10343 | 30.30597 | 14457 ft | 445 kts | 82° |
| 2026-04-25 10:41 | 50.10737 | 30.35379 | 14451 ft | 444 kts | 82° |
| 2026-04-25 10:42 | 50.11127 | 30.40124 | 14464 ft | 443 kts | 82° |
| 2026-04-25 10:42 | 50.11509 | 30.44841 | 14464 ft | 443 kts | 82° |
| 2026-04-25 10:42 | 50.11896 | 30.49568 | 14468 ft | 442 kts | 82° |
| 2026-04-25 10:42 | 50.12281 | 30.54305 | 14463 ft | 442 kts | 82° |
| 2026-04-25 10:43 | 50.12663 | 30.59079 | 14468 ft | 441 kts | 82° |
| 2026-04-25 10:43 | 50.13039 | 30.63790 | 14467 ft | 441 kts | 82° |
| 2026-04-25 10:43 | 50.13415 | 30.68482 | 14458 ft | 441 kts | 83° |
| 2026-04-25 10:43 | 50.13791 | 30.73217 | 14467 ft | 440 kts | 83° |
| 2026-04-25 10:44 | 50.14169 | 30.77952 | 14466 ft | 440 kts | 83° |
| 2026-04-25 10:44 | 50.14540 | 30.82688 | 14455 ft | 440 kts | 83° |
| 2026-04-25 10:44 | 50.14904 | 30.87360 | 14467 ft | 439 kts | 83° |
| 2026-04-25 10:44 | 50.15268 | 30.92112 | 14460 ft | 439 kts | 83° |
| 2026-04-25 10:45 | 50.15636 | 30.96836 | 14468 ft | 439 kts | 83° |
| 2026-04-25 10:45 | 50.15992 | 31.01483 | 14469 ft | 439 kts | 83° |
| 2026-04-25 10:45 | 50.16354 | 31.06240 | 14475 ft | 439 kts | 83° |
| 2026-04-25 10:45 | 50.16711 | 31.10913 | 14460 ft | 439 kts | 83° |
| 2026-04-25 10:46 | 50.17068 | 31.15645 | 14473 ft | 439 kts | 83° |
| 2026-04-25 10:46 | 50.17419 | 31.20320 | 14470 ft | 439 kts | 83° |
| 2026-04-25 10:46 | 50.17775 | 31.25071 | 14460 ft | 439 kts | 83° |
| 2026-04-25 10:46 | 50.18125 | 31.29776 | 14475 ft | 439 kts | 83° |
| 2026-04-25 10:47 | 50.18472 | 31.34458 | 14460 ft | 439 kts | 83° |
| 2026-04-25 10:47 | 50.18821 | 31.39203 | 14461 ft | 439 kts | 83° |
| 2026-04-25 10:47 | 50.19164 | 31.43880 | 14474 ft | 438 kts | 83° |
| 2026-04-25 10:47 | 50.19510 | 31.48632 | 14465 ft | 439 kts | 83° |
| 2026-04-25 10:48 | 50.19849 | 31.53319 | 14464 ft | 439 kts | 83° |
| 2026-04-25 10:48 | 50.20191 | 31.58077 | 14460 ft | 439 kts | 83° |
| 2026-04-25 10:48 | 50.20528 | 31.62778 | 14471 ft | 439 kts | 83° |
| 2026-04-25 10:48 | 50.20861 | 31.67456 | 14457 ft | 439 kts | 84° |
| 2026-04-25 10:49 | 50.21196 | 31.72198 | 14473 ft | 439 kts | 84° |
| 2026-04-25 10:49 | 50.21529 | 31.76933 | 14458 ft | 439 kts | 84° |
| 2026-04-25 10:49 | 50.21866 | 31.81645 | 14463 ft | 437 kts | 84° |
| 2026-04-25 10:49 | 50.22188 | 31.86109 | 14439 ft | 395 kts | 84° |
| 2026-04-25 10:50 | 50.22470 | 31.90171 | 14447 ft | 357 kts | 83° |
| 2026-04-25 10:50 | 50.22724 | 31.93809 | 14444 ft | 323 kts | 83° |
| 2026-04-25 10:50 | 50.22951 | 31.97102 | 14442 ft | 291 kts | 83° |
| 2026-04-25 10:50 | 50.23158 | 32.00091 | 14450 ft | 273 kts | 83° |
| 2026-04-25 10:51 | 50.23369 | 32.03073 | 14489 ft | 282 kts | 83° |
| 2026-04-25 10:51 | 50.23584 | 32.06182 | 14498 ft | 292 kts | 83° |
| 2026-04-25 10:51 | 50.23801 | 32.09386 | 14472 ft | 304 kts | 83° |
| 2026-04-25 10:51 | 50.24026 | 32.12738 | 14307 ft | 319 kts | 83° |
| 2026-04-25 10:52 | 50.24257 | 32.16236 | 14163 ft | 334 kts | 83° |
| 2026-04-25 10:52 | 50.24502 | 32.19939 | 13959 ft | 349 kts | 84° |
| 2026-04-25 10:52 | 50.24755 | 32.23779 | 13746 ft | 363 kts | 84° |
| 2026-04-25 10:52 | 50.25045 | 32.27746 | 13474 ft | 377 kts | 78° |
| 2026-04-25 10:53 | 50.26013 | 32.31467 | 13012 ft | 370 kts | 53° |
| 2026-04-25 10:53 | 50.27820 | 32.34218 | 12565 ft | 353 kts | 29° |
| 2026-04-25 10:53 | 50.30032 | 32.35516 | 12124 ft | 336 kts | 5° |
| 2026-04-25 10:53 | 50.32268 | 32.35289 | 11653 ft | 317 kts | 344° |
| 2026-04-25 10:54 | 50.34372 | 32.34620 | 11243 ft | 309 kts | 350° |
| 2026-04-25 10:54 | 50.35804 | 32.34333 | 10890 ft | 305 kts | 351° |
| 2026-04-25 10:54 | 50.38610 | 32.33526 | 8620 ft | 335 kts | 343° |
| 2026-04-25 10:54 | 50.40729 | 32.32733 | 5348 ft | 336 kts | 346° |
| 2026-04-25 10:55 | 50.42903 | 32.32341 | 3569 ft | 308 kts | 355° |
| 2026-04-25 10:55 | 50.44982 | 32.32140 | 3071 ft | 296 kts | 355° |
| 2026-04-25 10:55 | 50.45421 | 32.32104 | 3033 ft | 294 kts | 352° |
| 2026-04-25 10:55 | 50.47298 | 32.31918 | 2625 ft | 284 kts | 354° |
| 2026-04-25 10:56 | 50.49185 | 32.31695 | 1577 ft | 259 kts | 356° |
| 2026-04-25 10:56 | 50.50806 | 32.31706 | 1238 ft | 209 kts | 359° |
| 2026-04-25 10:56 | 50.52090 | 32.31695 | 1171 ft | 158 kts | 354° |
| 2026-04-25 10:56 | 50.53040 | 32.31681 | 985 ft | 123 kts | 358° |
| 2026-04-25 10:57 | 50.53961 | 32.31684 | 907 ft | 143 kts | 356° |
| 2026-04-25 10:57 | 50.54994 | 32.31635 | 789 ft | 156 kts | 356° |
| 2026-04-25 10:57 | 50.56115 | 32.31585 | 502 ft | 165 kts | 358° |
| 2026-04-25 10:57 | 50.57245 | 32.31569 | 448 ft | 159 kts | 358° |
| 2026-04-25 10:58 | 50.58141 | 32.31554 | 432 ft | 88 kts | 358° |
| 2026-04-25 10:58 | 50.58543 | 32.31563 | 433 ft | 30 kts | 9° |
| 2026-04-25 10:58 | 50.58666 | 32.31711 | 436 ft | 26 kts | 96° |
| 2026-04-25 10:58 | 50.58669 | 32.31923 | 436 ft | 15 kts | 107° |
| 2026-04-25 10:59 | 50.58608 | 32.32006 | 433 ft | 10 kts | 174° |
| 2026-04-25 10:59 | 50.58518 | 32.32017 | 431 ft | 15 kts | 176° |
| 2026-04-25 10:59 | 50.58402 | 32.32040 | 429 ft | 16 kts | 174° |
| 2026-04-25 10:59 | 50.58283 | 32.32046 | 430 ft | 18 kts | 177° |
| 2026-04-25 11:00 | 50.58161 | 32.32051 | 431 ft | 14 kts | 179° |
| 2026-04-25 11:00 | 50.58083 | 32.32053 | 432 ft | 7 kts | 179° |
| 2026-04-25 11:00 | 50.58054 | 32.32053 | 432 ft | 0 kts | 180° |
| 2026-04-25 11:02 | 50.58044 | 32.32053 | 432 ft | 0 kts | 180° |